Time;durP1;ratioP1;P1;durP2;ratioP2;P2;SDS_P1;SDS_P2;PMS_P1;PMS_P2;Temp;Humidity;BMP_temperature;BMP_pressure;BME280_temperature;BME280_humidity;BME280_pressure;Samples;Min_cycle;Max_cycle;Signal;HPM_P1;HPM_P2
2022/06/05 00:00:29;;;;;;;17.43;15.63;;;;;;;9.55;93.00;102298.69;5073281;28;20474;-45
2022/06/05 00:03:11;;;;;;;14.87;13.57;;;;;;;9.51;93.50;102298.16;5075396;28;20434;-43
2022/06/05 00:05:47;;;;;;;14.10;12.83;;;;;;;9.45;93.54;102299.59;5075369;28;20430;-44
2022/06/05 00:08:22;;;;;;;15.73;14.33;;;;;;;9.41;93.47;102294.72;5074545;28;20454;-43
2022/06/05 00:10:55;;;;;;;16.57;14.90;;;;;;;9.39;93.85;102296.69;5075017;28;20475;-43
2022/06/05 00:13:31;;;;;;;15.53;13.90;;;;;;;9.33;93.60;102299.97;5075358;28;20430;-44
2022/06/05 00:15:59;;;;;;;15.37;13.97;;;;;;;9.29;93.69;102296.75;5075162;28;20426;-43
2022/06/05 00:18:32;;;;;;;14.17;12.67;;;;;;;9.27;93.71;102298.75;5074475;28;20827;-44
2022/06/05 00:21:00;;;;;;;17.00;15.17;;;;;;;9.25;94.01;102306.06;5074894;28;20842;-44
2022/06/05 00:23:28;;;;;;;18.80;17.03;;;;;;;9.22;94.31;102308.16;5075089;28;20434;-45
2022/06/05 00:26:07;;;;;;;17.33;15.50;;;;;;;9.18;94.16;102309.44;5074912;28;20440;-46
2022/06/05 00:28:39;;;;;;;17.90;16.30;;;;;;;9.17;94.13;102307.78;5074547;28;20545;-43
2022/06/05 00:31:16;;;;;;;16.03;14.53;;;;;;;9.13;94.26;102301.91;5070780;28;20450;-43
2022/06/05 00:33:46;;;;;;;15.63;14.13;;;;;;;9.13;94.37;102301.06;5045091;28;20471;-44
2022/06/05 00:36:31;;;;;;;17.87;15.77;;;;;;;9.11;94.61;102293.22;5054892;28;20446;-46
2022/06/05 00:39:05;;;;;;;16.30;14.80;;;;;;;9.12;95.09;102291.41;5054255;28;20467;-43
2022/06/05 00:41:53;;;;;;;15.93;14.40;;;;;;;9.16;95.20;102300.78;5054477;28;20488;-45
2022/06/05 00:44:26;;;;;;;17.13;15.30;;;;;;;9.21;95.30;102285.19;5054768;28;20438;-46
2022/06/05 00:46:54;;;;;;;18.63;16.50;;;;;;;9.24;95.75;102277.75;5054425;28;20925;-43
2022/06/05 00:49:30;;;;;;;19.70;17.20;;;;;;;9.34;96.07;102275.03;5053843;28;20467;-43
2022/06/05 00:51:58;;;;;;;21.10;18.83;;;;;;;9.38;96.33;102277.22;5054040;28;20450;-43
2022/06/05 00:54:25;;;;;;;20.70;18.60;;;;;;;9.41;96.43;102276.91;5054632;28;20461;-43
2022/06/05 00:56:53;;;;;;;20.83;18.63;;;;;;;9.45;96.72;102272.97;5054435;28;20431;-45
2022/06/05 00:59:21;;;;;;;21.93;17.93;;;;;;;9.42;96.30;102272.44;5053702;28;20466;-43
2022/06/05 01:01:50;;;;;;;18.40;16.70;;;;;;;9.38;96.13;102273.72;5053930;28;20479;-46
2022/06/05 01:04:19;;;;;;;19.47;17.47;;;;;;;9.31;95.90;102283.31;5054167;28;20485;-48
2022/06/05 01:06:48;;;;;;;16.70;15.20;;;;;;;9.20;96.02;102270.22;5054620;28;20435;-45
2022/06/05 01:09:16;;;;;;;16.43;15.10;;;;;;;9.10;95.62;102272.09;5053631;28;20470;-47
2022/06/05 01:11:53;;;;;;;17.90;16.00;;;;;;;9.07;96.01;102273.25;5052896;28;20474;-50
2022/06/05 01:14:31;;;;;;;16.10;14.57;;;;;;;9.01;95.93;102270.34;5054134;28;20947;-49
2022/06/05 01:17:04;;;;;;;15.40;13.90;;;;;;;8.98;95.80;102278.63;5053918;28;20438;-46
2022/06/05 01:19:41;;;;;;;15.23;13.93;;;;;;;8.95;95.88;102276.25;5053471;28;20469;-45
2022/06/05 01:22:41;;;;;;;15.77;14.13;;;;;;;8.93;95.96;102276.38;5053653;28;20498;-45
2022/06/05 01:25:24;;;;;;;16.33;14.53;;;;;;;8.89;95.85;102270.56;5053707;28;20427;-46
2022/06/05 01:27:58;;;;;;;15.60;14.10;;;;;;;8.88;96.13;102273.34;5053486;28;20826;-47
2022/06/05 01:30:26;;;;;;;17.03;15.30;;;;;;;8.84;95.89;102272.78;5053391;28;20427;-43
2022/06/05 01:32:59;;;;;;;17.17;15.50;;;;;;;8.82;96.03;102269.44;5045401;28;20439;-44
2022/06/05 01:35:36;;;;;;;20.30;16.50;;;;;;;8.80;96.38;102258.13;5037679;28;20947;-43
2022/06/05 01:38:10;;;;;;;16.00;14.40;;;;;;;8.82;96.25;102263.28;5033351;28;20470;-46
2022/06/05 01:40:45;;;;;;;21.63;16.53;;;;;;;8.83;96.33;102262.31;5033373;28;20439;-43
2022/06/05 01:43:18;;;;;;;24.33;19.47;;;;;;;8.89;97.03;102257.25;5033696;28;20465;-43
2022/06/05 01:45:50;;;;;;;20.87;18.67;;;;;;;8.91;97.14;102257.09;5033589;28;20456;-44
2022/06/05 01:48:24;;;;;;;20.40;18.30;;;;;;;8.93;97.01;102256.94;5033202;28;20464;-44
2022/06/05 01:50:56;;;;;;;20.57;17.90;;;;;;;8.95;97.00;102252.31;5033299;28;20449;-45
2022/06/05 01:53:29;;;;;;;27.53;22.10;;;;;;;8.98;97.14;102255.50;5033639;28;20444;-44
2022/06/05 01:56:02;;;;;;;26.60;22.17;;;;;;;9.04;97.57;102252.25;5033403;28;20442;-44
2022/06/05 01:58:37;;;;;;;25.00;22.40;;;;;;;9.11;97.58;102250.66;5032644;28;20799;-46
2022/06/05 02:01:11;;;;;;;23.60;20.40;;;;;;;9.12;97.79;102259.47;5032835;28;20866;-43
2022/06/05 02:03:44;;;;;;;25.17;22.47;;;;;;;9.12;97.94;102243.50;5033342;28;20446;-48
2022/06/05 02:06:15;;;;;;;24.30;21.70;;;;;;;9.13;97.87;102234.53;5033208;28;20486;-43
2022/06/05 02:08:46;;;;;;;24.67;22.03;;;;;;;9.18;97.91;102221.59;5032848;28;20460;-44
2022/06/05 02:11:20;;;;;;;25.03;22.37;;;;;;;9.23;98.25;102222.81;5032781;28;20452;-43
2022/06/05 02:13:50;;;;;;;32.27;23.87;;;;;;;9.30;98.07;102221.25;5033100;28;20442;-43
2022/06/05 02:16:18;;;;;;;30.87;23.57;;;;;;;9.34;97.96;102221.78;5033037;28;20782;-43
2022/06/05 02:18:47;;;;;;;31.77;23.60;;;;;;;9.36;98.05;102215.31;5032350;28;20460;-48
2022/06/05 02:21:15;;;;;;;31.20;22.47;;;;;;;9.39;98.06;102216.81;5032476;28;20476;-45
2022/06/05 02:23:43;;;;;;;29.70;23.77;;;;;;;9.45;97.86;102205.56;5032546;28;20797;-46
2022/06/05 02:26:11;;;;;;;33.50;24.83;;;;;;;9.54;97.70;102215.28;5033065;28;20436;-43
2022/06/05 02:28:39;;;;;;;26.70;22.00;;;;;;;9.63;97.35;102214.38;5032187;28;20464;-46
2022/06/05 02:31:22;;;;;;;34.80;25.80;;;;;;;9.72;96.91;102218.75;5033941;28;20460;-49
2022/06/05 02:34:03;;;;;;;31.07;24.20;;;;;;;9.82;96.85;102213.34;5041563;28;20434;-43
2022/06/05 02:36:41;;;;;;;35.30;25.80;;;;;;;9.90;96.72;102216.06;5032763;28;20801;-43
2022/06/05 02:39:16;;;;;;;40.80;25.73;;;;;;;9.94;96.36;102207.59;5032148;28;20460;-43
2022/06/05 02:41:55;;;;;;;34.80;25.67;;;;;;;9.97;96.40;102203.78;5032210;28;20921;-45
2022/06/05 02:44:31;;;;;;;37.40;27.23;;;;;;;9.99;96.30;102207.13;5032229;28;20489;-46
2022/06/05 02:47:19;;;;;;;33.47;26.53;;;;;;;9.98;96.19;102192.97;5032539;28;20432;-44
2022/06/05 02:49:55;;;;;;;36.97;29.07;;;;;;;9.97;95.95;102199.28;5030220;28;20456;-44
2022/06/05 02:52:24;;;;;;;35.30;27.13;;;;;;;9.97;95.80;102195.78;5032193;28;20489;-43
2022/06/05 02:54:57;;;;;;;27.03;24.20;;;;;;;9.98;95.23;102186.78;5032113;28;20458;-43
2022/06/05 02:57:25;;;;;;;44.23;27.50;;;;;;;9.99;94.89;102191.13;5031804;28;20429;-43
2022/06/05 02:59:53;;;;;;;60.83;29.83;;;;;;;9.99;94.37;102181.31;5032238;28;20442;-44
2022/06/05 03:05:07;;;;;;;37.57;26.47;;;;;;;10.06;93.79;102186.84;5032027;28;20429;-48
2022/06/05 03:07:35;;;;;;;38.37;27.93;;;;;;;10.09;93.00;102183.88;5031701;28;20463;-44
2022/06/05 03:10:03;;;;;;;37.27;29.20;;;;;;;10.12;93.13;102177.38;5031935;28;20514;-46
2022/06/05 03:12:31;;;;;;;32.10;25.67;;;;;;;10.13;93.02;102198.56;5031839;28;20445;-44
2022/06/05 03:15:01;;;;;;;29.20;26.23;;;;;;;10.18;92.88;102198.94;5032023;28;20438;-47
2022/06/05 03:17:31;;;;;;;33.30;25.87;;;;;;;10.24;92.68;102192.97;5031883;28;20438;-44
2022/06/05 03:19:59;;;;;;;31.40;26.33;;;;;;;10.30;92.83;102195.00;5032248;28;20431;-43
2022/06/05 03:22:28;;;;;;;34.03;25.83;;;;;;;10.40;92.21;102206.38;5031413;28;20479;-44
2022/06/05 03:24:55;;;;;;;27.47;23.30;;;;;;;10.59;91.10;102207.13;5031861;28;20435;-42
2022/06/05 03:27:23;;;;;;;30.70;25.57;;;;;;;10.73;91.45;102212.66;5031350;28;20431;-43
2022/06/05 03:29:51;;;;;;;29.47;25.63;;;;;;;10.74;94.29;102205.50;5031898;28;20436;-44
2022/06/05 03:32:19;;;;;;;28.27;25.23;;;;;;;10.74;95.25;102219.69;5036252;28;20479;-47
2022/06/05 03:34:48;;;;;;;29.50;25.03;;;;;;;10.77;95.45;102218.53;5039251;28;20937;-43
2022/06/05 03:37:15;;;;;;;26.60;23.70;;;;;;;10.76;96.51;102232.84;5031287;28;20432;-44
2022/06/05 03:39:43;;;;;;;25.40;22.83;;;;;;;10.76;96.73;102224.84;5031652;28;20436;-47
2022/06/05 03:42:11;;;;;;;24.80;22.20;;;;;;;10.79;96.60;102233.38;5031238;28;20483;-45
2022/06/05 03:44:39;;;;;;;24.87;22.40;;;;;;;10.83;97.09;102225.88;5031608;28;20439;-45
2022/06/05 03:47:08;;;;;;;25.03;22.50;;;;;;;10.87;97.48;102236.06;5031476;28;20432;-48
2022/06/05 03:49:36;;;;;;;22.40;20.20;;;;;;;10.94;97.73;102230.91;5031459;28;20448;-44
2022/06/05 03:52:06;;;;;;;21.10;19.10;;;;;;;11.01;97.78;102222.09;5031220;28;20961;-44
2022/06/05 03:54:34;;;;;;;22.43;20.13;;;;;;;11.08;97.91;102222.25;5031591;28;20440;-48
2022/06/05 03:57:03;;;;;;;24.47;21.97;;;;;;;11.19;98.04;102216.63;5031513;28;20432;-46
2022/06/05 03:59:31;;;;;;;22.63;20.40;;;;;;;11.31;98.07;102214.47;5030926;28;20993;-43
2022/06/05 04:01:59;;;;;;;23.37;21.17;;;;;;;11.37;98.21;102203.97;5031258;28;20476;-45
2022/06/05 04:04:26;;;;;;;26.57;22.10;;;;;;;11.38;98.64;102199.47;5031582;28;20436;-47
2022/06/05 04:06:54;;;;;;;23.97;21.47;;;;;;;11.39;98.67;102198.44;5031626;28;20432;-46
2022/06/05 04:09:23;;;;;;;23.97;21.57;;;;;;;11.46;98.82;102205.63;5030939;28;20496;-48
2022/06/05 04:11:51;;;;;;;23.67;21.13;;;;;;;11.51;98.71;102197.09;5030928;28;20475;-45
2022/06/05 04:14:19;;;;;;;23.80;20.20;;;;;;;11.65;98.72;102202.59;5031329;28;20933;-43
2022/06/05 04:16:46;;;;;;;20.90;18.80;;;;;;;11.75;98.75;102193.63;5031425;28;20436;-44
2022/06/05 04:19:14;;;;;;;23.17;20.77;;;;;;;11.79;99.00;102202.97;5030536;28;20464;-46
2022/06/05 04:21:46;;;;;;;21.20;19.20;;;;;;;11.87;99.24;102200.28;5031035;28;20523;-45
2022/06/05 04:24:15;;;;;;;23.17;20.37;;;;;;;12.10;98.38;102198.56;5031235;28;20491;-46
2022/06/05 04:26:45;;;;;;;23.03;20.87;;;;;;;13.43;87.81;102193.88;5031148;28;20455;-46
2022/06/05 04:29:12;;;;;;;19.90;17.80;;;;;;;15.21;74.90;102186.41;5030642;28;20460;-45
2022/06/05 04:31:45;;;;;;;17.60;16.00;;;;;;;16.39;99.04;102181.94;5035707;28;20459;-43
2022/06/05 04:34:15;;;;;;;16.80;15.20;;;;;;;17.58;87.03;102165.06;5039401;28;20550;-44
2022/06/05 04:36:43;;;;;;;18.20;16.47;;;;;;;18.58;76.50;102168.16;5031371;28;20436;-44
2022/06/05 04:39:11;;;;;;;15.80;14.53;;;;;;;19.52;71.58;102170.91;5030968;28;20993;-44
2022/06/05 04:41:40;;;;;;;15.03;13.83;;;;;;;20.27;66.20;102163.53;5030767;28;20452;-45
2022/06/05 04:44:12;;;;;;;16.57;15.07;;;;;;;20.91;60.44;102166.44;5031015;28;20467;-45
2022/06/05 04:46:40;;;;;;;16.13;14.87;;;;;;;21.79;61.78;102171.94;5031555;28;20477;-44
2022/06/05 04:49:07;;;;;;;15.67;14.37;;;;;;;22.54;56.15;102167.34;5034059;28;20460;-45
2022/06/05 04:51:36;;;;;;;12.40;11.60;;;;;;;23.28;58.86;102170.94;5034047;28;20459;-44
2022/06/05 04:54:05;;;;;;;13.50;12.30;;;;;;;23.84;55.92;102156.31;5034677;28;20466;-43
2022/06/05 04:56:34;;;;;;;14.17;13.03;;;;;;;24.43;52.40;102151.16;5034786;28;20426;-45
2022/06/05 04:59:01;;;;;;;13.50;12.50;;;;;;;24.68;52.05;102149.53;5033963;28;20452;-46
2022/06/05 05:01:37;;;;;;;14.87;13.57;;;;;;;24.09;46.18;102158.59;5034001;28;20558;-48
2022/06/05 05:04:07;;;;;;;13.50;12.20;;;;;;;24.40;50.14;102148.94;5034129;28;20485;-46
2022/06/05 05:06:35;;;;;;;13.03;12.23;;;;;;;25.01;51.27;102161.34;5034528;28;20771;-46
2022/06/05 05:09:04;;;;;;;13.00;12.07;;;;;;;25.43;46.79;102161.44;5033597;28;20460;-47
2022/06/05 05:11:31;;;;;;;16.20;14.87;;;;;;;25.68;49.66;102169.88;5033965;28;20458;-44
2022/06/05 05:14:00;;;;;;;14.00;12.73;;;;;;;26.21;44.01;102160.63;5034167;28;20432;-44
2022/06/05 05:16:30;;;;;;;13.37;12.27;;;;;;;26.73;47.38;102152.34;5034001;28;20416;-45
2022/06/05 05:19:06;;;;;;;14.50;13.27;;;;;;;27.15;45.82;102143.94;5033655;28;20534;-45
2022/06/05 05:21:34;;;;;;;13.30;12.30;;;;;;;27.41;44.50;102143.66;5033797;28;20451;-45
2022/06/05 05:24:02;;;;;;;14.20;13.00;;;;;;;27.14;43.10;102136.81;5033854;28;20509;-50
2022/06/05 05:26:32;;;;;;;14.60;13.50;;;;;;;26.98;43.25;102129.69;5034075;28;20432;-46
2022/06/05 05:29:01;;;;;;;14.10;13.10;;;;;;;26.65;40.73;102120.84;5033317;28;20463;-47
2022/06/05 05:31:32;;;;;;;14.30;13.23;;;;;;;26.82;44.04;102118.72;5038192;28;20465;-45
2022/06/05 05:34:00;;;;;;;12.33;11.43;;;;;;;27.13;42.57;102116.00;5042070;28;20846;-47
2022/06/05 05:36:30;;;;;;;14.43;13.43;;;;;;;26.81;43.06;102119.81;5033826;28;20438;-45
2022/06/05 05:44:32;;;;;;;14.60;13.33;;;;;;;26.94;41.46;102100.09;5033668;28;20502;-45
2022/06/05 05:47:00;;;;;;;12.97;11.97;;;;;;;27.11;42.28;102090.81;5033623;28;20435;-45
2022/06/05 05:49:28;;;;;;;13.30;12.30;;;;;;;27.35;42.24;102100.09;5032966;28;20459;-46
2022/06/05 05:51:56;;;;;;;12.10;11.00;;;;;;;27.89;42.33;102106.59;5033053;28;20455;-44
2022/06/05 05:54:24;;;;;;;12.37;11.27;;;;;;;27.48;39.72;102116.81;5033360;28;20435;-51
2022/06/05 05:56:52;;;;;;;12.23;11.30;;;;;;;27.85;41.45;102113.72;5033263;28;20801;-46
2022/06/05 05:59:20;;;;;;;11.30;10.30;;;;;;;28.05;40.58;102107.38;5032384;28;20229;-45
2022/06/05 06:01:48;;;;;;;12.20;11.20;;;;;;;28.61;40.90;102113.41;5033099;28;20590;-45
2022/06/05 06:04:16;;;;;;;13.03;11.90;;;;;;;28.67;35.67;102109.56;5033011;28;20497;-46
2022/06/05 06:06:46;;;;;;;12.33;11.30;;;;;;;28.67;37.37;102115.06;5033342;28;20666;-48
2022/06/05 06:09:16;;;;;;;14.80;11.40;;;;;;;28.60;38.11;102119.19;5032785;28;20239;-44
2022/06/05 06:11:43;;;;;;;12.27;11.37;;;;;;;28.80;39.24;102114.41;5032825;28;20223;-46
2022/06/05 06:14:11;;;;;;;12.53;11.53;;;;;;;28.75;39.29;102122.69;5033006;28;20200;-51
2022/06/05 06:16:39;;;;;;;10.27;9.57;;;;;;;29.03;37.60;102110.13;5032989;28;20590;-46
2022/06/05 06:19:06;;;;;;;12.90;11.93;;;;;;;28.94;36.78;102125.56;5032531;28;20227;-45
2022/06/05 06:21:34;;;;;;;12.30;11.30;;;;;;;29.42;37.35;102127.38;5032752;28;20217;-46
2022/06/05 06:24:09;;;;;;;10.23;9.53;;;;;;;29.77;38.18;102128.13;5032668;28;20213;-45
2022/06/05 06:26:38;;;;;;;11.30;10.30;;;;;;;29.76;36.96;102135.56;5032841;28;20196;-45
2022/06/05 06:29:06;;;;;;;10.83;9.93;;;;;;;30.39;36.91;102138.16;5032186;28;20594;-47
2022/06/05 06:31:35;;;;;;;10.27;9.47;;;;;;;30.51;34.25;102133.84;5037002;28;20250;-50
2022/06/05 06:34:03;;;;;;;11.23;10.33;;;;;;;30.52;35.50;102124.50;5041036;28;20193;-47
2022/06/05 06:36:32;;;;;;;9.57;8.77;;;;;;;30.93;34.85;102116.44;5032644;28;20196;-45
2022/06/05 06:39:16;;;;;;;11.80;10.90;;;;;;;30.38;33.78;102128.22;5032082;28;20282;-47
2022/06/05 06:41:45;;;;;;;11.03;10.13;;;;;;;30.61;33.61;102124.63;5032327;28;20227;-46
2022/06/05 06:44:13;;;;;;;9.93;9.20;;;;;;;30.28;33.36;102117.38;5032795;28;20227;-48
2022/06/05 06:46:41;;;;;;;13.03;11.83;;;;;;;29.09;34.89;102117.22;5032585;28;20296;-46
2022/06/05 06:49:09;;;;;;;10.77;9.97;;;;;;;29.08;37.07;102104.59;5031855;28;20232;-47
2022/06/05 06:51:37;;;;;;;10.23;9.53;;;;;;;29.06;35.72;102104.84;5032069;28;20245;-49
2022/06/05 06:54:05;;;;;;;10.33;9.43;;;;;;;29.37;34.78;102110.94;5032303;28;20650;-49
2022/06/05 06:56:34;;;;;;;11.67;10.60;;;;;;;29.57;36.85;102113.47;5032049;28;20193;-50
2022/06/05 06:59:05;;;;;;;11.30;10.50;;;;;;;29.40;36.08;102110.34;5031854;28;20224;-48
2022/06/05 07:01:32;;;;;;;10.73;9.93;;;;;;;29.46;36.53;102113.88;5032093;28;20220;-46
2022/06/05 07:04:00;;;;;;;11.77;10.87;;;;;;;29.49;34.64;102111.38;5032063;28;20610;-47
2022/06/05 07:06:28;;;;;;;11.37;10.57;;;;;;;29.46;36.33;102122.13;5030839;28;20236;-48
2022/06/05 07:08:56;;;;;;;10.37;9.60;;;;;;;30.08;36.78;102119.25;5031065;28;20221;-45
2022/06/05 07:11:23;;;;;;;11.77;10.90;;;;;;;30.34;33.29;102106.00;5031666;28;20299;-49
2022/06/05 07:13:51;;;;;;;13.43;10.60;;;;;;;30.48;33.71;102101.41;5031776;28;20673;-43
2022/06/05 07:16:21;;;;;;;10.27;9.48;;;;;;;30.48;34.82;102106.94;5032011;28;20197;-50
2022/06/05 07:18:49;;;;;;;10.97;10.10;;;;;;;30.04;34.30;102118.22;5031425;28;20295;-46
2022/06/05 07:21:18;;;;;;;9.90;9.20;;;;;;;30.30;35.13;102102.19;5031180;28;20232;-46
2022/06/05 07:23:46;;;;;;;10.57;9.57;;;;;;;30.48;35.40;102108.84;5031656;28;20219;-44
2022/06/05 07:26:17;;;;;;;10.33;9.43;;;;;;;30.65;34.72;102100.88;5031867;28;20203;-49
2022/06/05 07:28:44;;;;;;;8.50;7.90;;;;;;;30.76;35.20;102102.38;5031318;28;20220;-47
2022/06/05 07:31:14;;;;;;;9.60;8.63;;;;;;;30.20;35.13;102096.03;5033929;28;20235;-48
2022/06/05 07:33:43;;;;;;;10.30;9.40;;;;;;;29.96;35.03;102090.50;5041845;28;20246;-48
2022/06/05 07:36:16;;;;;;;10.73;9.90;;;;;;;29.60;34.05;102088.16;5031038;28;20268;-43
2022/06/05 07:38:44;;;;;;;10.23;9.37;;;;;;;29.04;35.57;102087.03;5031146;28;20220;-49
2022/06/05 07:41:18;;;;;;;10.67;9.87;;;;;;;27.95;37.56;102102.75;5042727;28;20704;-48
2022/06/05 07:43:46;;;;;;;9.03;8.43;;;;;;;27.97;37.16;102100.53;5050882;28;20207;-46
2022/06/05 07:46:14;;;;;;;10.43;9.73;;;;;;;27.90;37.26;102099.19;5051338;28;20196;-48
2022/06/05 07:48:43;;;;;;;10.90;10.10;;;;;;;27.13;39.25;102091.34;5050610;28;20258;-45
2022/06/05 07:56:44;;;;;;;10.73;9.83;;;;;;;26.13;41.00;102106.44;5051188;28;20192;-45
2022/06/05 07:59:12;;;;;;;10.97;10.13;;;;;;;25.36;43.99;102098.06;5050863;28;20815;-45
2022/06/05 08:01:57;;;;;;;9.87;9.23;;;;;;;25.44;42.91;102094.81;5050921;28;20975;-47
2022/06/05 08:04:27;;;;;;;10.87;10.07;;;;;;;25.30;42.90;102098.00;5050975;28;20561;-44
2022/06/05 08:06:55;;;;;;;11.27;10.47;;;;;;;24.92;43.36;102094.66;5048905;28;20518;-44
2022/06/05 08:09:24;;;;;;;11.07;10.17;;;;;;;25.02;42.79;102092.03;5045818;28;20459;-45
2022/06/05 08:11:51;;;;;;;10.87;10.10;;;;;;;24.12;46.15;102079.06;5029782;28;20455;-44
2022/06/05 08:14:19;;;;;;;10.47;9.57;;;;;;;23.88;45.78;102075.75;5031120;28;20860;-44
2022/06/05 08:16:47;;;;;;;9.80;9.00;;;;;;;23.72;44.71;102073.06;5030697;28;20424;-44
2022/06/05 08:19:16;;;;;;;9.60;8.77;;;;;;;22.92;47.28;102089.75;5030790;28;20464;-44
2022/06/05 08:21:46;;;;;;;9.70;9.00;;;;;;;22.55;49.74;102073.84;5033359;28;20457;-47
2022/06/05 08:24:14;;;;;;;8.93;8.33;;;;;;;22.03;49.73;102075.00;5034878;28;20833;-45
2022/06/05 08:26:42;;;;;;;10.23;9.53;;;;;;;21.61;52.17;102062.63;5035088;28;20845;-44
2022/06/05 08:29:10;;;;;;;9.83;9.03;;;;;;;21.75;50.51;102061.31;5033757;28;20806;-43
2022/06/05 08:31:38;;;;;;;10.97;9.97;;;;;;;21.82;51.04;102064.72;5034934;28;20490;-45
2022/06/05 08:34:06;;;;;;;9.67;8.90;;;;;;;21.73;51.28;102058.84;5046323;28;20437;-45
2022/06/05 08:36:34;;;;;;;10.23;9.53;;;;;;;21.83;50.60;102064.47;5054510;28;20431;-48
2022/06/05 08:42:03;;;;;;;10.80;8.30;;;;;;;21.85;50.48;102056.94;5054424;28;20541;-46
2022/06/05 08:44:39;;;;;;;9.37;8.63;;;;;;;21.58;51.08;102044.09;5054538;28;20478;-44
2022/06/05 08:47:15;;;;;;;10.43;9.53;;;;;;;21.44;52.10;102046.25;5054778;28;20780;-43
2022/06/05 08:49:46;;;;;;;8.50;7.80;;;;;;;21.62;51.13;102040.69;5054279;28;20438;-43
2022/06/05 08:52:23;;;;;;;7.83;7.23;;;;;;;21.59;52.31;102043.88;5054400;28;20447;-45
2022/06/05 08:54:57;;;;;;;8.97;8.17;;;;;;;20.92;54.00;102042.50;5054364;28;20431;-43
2022/06/05 08:57:30;;;;;;;9.20;8.40;;;;;;;21.06;52.78;102043.13;5054019;28;20427;-44
2022/06/05 09:00:04;;;;;;;9.80;8.90;;;;;;;21.14;53.24;102040.94;5054522;28;20430;-45
2022/06/05 09:02:41;;;;;;;11.40;9.10;;;;;;;21.19;53.93;102021.22;5051999;28;20454;-44
2022/06/05 09:05:14;;;;;;;11.17;9.37;;;;;;;21.17;53.60;102029.63;5049780;28;20462;-44
2022/06/05 09:07:45;;;;;;;8.47;7.87;;;;;;;21.12;53.38;102026.75;5053338;28;20459;-44
2022/06/05 09:10:19;;;;;;;9.23;8.53;;;;;;;21.01;52.97;102022.13;5042712;28;20427;-45
2022/06/05 09:12:51;;;;;;;8.13;7.67;;;;;;;21.04;53.12;102018.13;5051949;28;20463;-48
2022/06/05 09:15:25;;;;;;;8.40;7.70;;;;;;;20.91;52.61;102017.28;5052822;28;20443;-43
2022/06/05 09:17:55;;;;;;;8.10;7.50;;;;;;;20.95;52.43;102018.47;5052363;28;20824;-44
2022/06/05 09:20:32;;;;;;;10.27;7.97;;;;;;;20.89;52.90;102016.69;5052944;28;20423;-44
2022/06/05 09:23:05;;;;;;;8.47;7.63;;;;;;;20.82;53.31;102015.13;5053377;28;20426;-44
2022/06/05 09:25:51;;;;;;;7.87;7.27;;;;;;;21.04;52.30;102010.81;5048468;28;21000;-46
2022/06/05 09:29:00;;;;;;;7.67;7.20;;;;;;;21.34;50.45;102010.72;5051734;28;20473;-44
2022/06/05 09:31:58;;;;;;;8.13;6.47;;;;;;;21.27;50.68;102007.28;4997947;28;20474;-45
2022/06/05 09:34:30;;;;;;;7.20;6.60;;;;;;;21.39;48.98;102006.22;5010070;28;20434;-46
2022/06/05 09:37:11;;;;;;;6.70;6.20;;;;;;;21.59;49.35;102011.31;5052100;28;20427;-44
2022/06/05 09:39:45;;;;;;;7.40;6.80;;;;;;;21.68;50.11;101993.56;5052390;28;20443;-47
2022/06/05 09:42:29;;;;;;;7.73;7.03;;;;;;;21.90;50.18;101993.75;5052281;28;20449;-46
2022/06/05 09:45:07;;;;;;;6.93;6.43;;;;;;;22.01;49.22;101987.50;5053215;28;20441;-45
2022/06/05 09:47:44;;;;;;;7.37;6.83;;;;;;;21.80;50.87;101988.91;5051845;28;20454;-47
2022/06/05 09:50:30;;;;;;;8.10;7.23;;;;;;;21.77;49.99;101981.28;5053044;28;20427;-45
2022/06/05 09:52:58;;;;;;;6.63;6.20;;;;;;;22.00;49.39;101978.50;5053163;28;20924;-44
2022/06/05 09:55:39;;;;;;;8.17;7.57;;;;;;;22.00;50.53;101983.09;5052953;28;20800;-43
2022/06/05 09:58:31;;;;;;;7.67;7.17;;;;;;;22.06;49.84;101979.44;5051256;28;20473;-43
2022/06/05 10:01:00;;;;;;;7.00;6.60;;;;;;;22.12;49.54;101977.63;5052441;28;20454;-43
2022/06/05 10:03:32;;;;;;;8.70;8.10;;;;;;;22.12;49.88;101969.47;5051157;28;20435;-47
2022/06/05 10:06:24;;;;;;;7.87;7.27;;;;;;;21.92;50.30;101964.50;5051388;28;20471;-43
2022/06/05 10:08:56;;;;;;;8.40;7.57;;;;;;;21.84;50.66;101954.78;5051444;28;20466;-46
2022/06/05 10:11:37;;;;;;;6.90;6.30;;;;;;;21.92;49.72;101961.78;5052441;28;20453;-45
2022/06/05 10:14:19;;;;;;;6.90;6.40;;;;;;;22.08;49.34;101958.25;5052618;28;20435;-44
2022/06/05 10:16:53;;;;;;;7.70;7.20;;;;;;;22.32;49.52;101961.69;5051636;28;20430;-48
2022/06/05 10:19:35;;;;;;;7.07;6.30;;;;;;;22.24;50.25;101948.50;5051960;28;20469;-46
2022/06/05 10:22:10;;;;;;;7.33;6.53;;;;;;;22.27;49.29;101948.03;5049894;28;20458;-47
2022/06/05 10:24:52;;;;;;;6.97;6.10;;;;;;;22.32;48.84;101937.22;5052569;28;20444;-46
2022/06/05 10:27:21;;;;;;;5.47;5.17;;;;;;;22.72;46.54;101931.69;5049087;28;20482;-48
2022/06/05 10:29:55;;;;;;;5.70;5.30;;;;;;;22.90;46.05;101921.38;5048669;28;20802;-45
2022/06/05 10:32:33;;;;;;;6.97;6.57;;;;;;;22.43;49.35;101917.31;5051658;28;20470;-45
2022/06/05 10:35:05;;;;;;;7.30;6.70;;;;;;;22.43;47.42;101907.25;5046313;28;20437;-45
2022/06/05 10:37:40;;;;;;;7.30;6.70;;;;;;;22.83;48.88;101888.06;5051578;28;20455;-45
2022/06/05 10:40:22;;;;;;;7.57;7.00;;;;;;;22.97;47.98;101896.69;5052270;28;20453;-45
2022/06/05 10:42:56;;;;;;;7.37;6.87;;;;;;;22.88;48.06;101887.34;5049574;28;20454;-45
2022/06/05 10:45:39;;;;;;;8.27;7.47;;;;;;;22.74;48.50;101886.84;5051508;28;20433;-44
2022/06/05 10:48:34;;;;;;;7.83;7.17;;;;;;;22.76;49.74;101878.44;5051356;28;20549;-44
2022/06/05 10:51:14;;;;;;;7.73;7.17;;;;;;;22.58;49.74;101865.88;5051731;28;20451;-44
2022/06/05 10:53:47;;;;;;;7.73;7.20;;;;;;;22.58;49.23;101874.88;5051925;28;20439;-44
2022/06/05 10:56:25;;;;;;;9.27;7.00;;;;;;;22.64;50.33;101877.69;5051770;28;20419;-44
2022/06/05 10:58:58;;;;;;;7.80;7.20;;;;;;;22.59;51.24;101870.25;5050450;28;20828;-44
2022/06/05 11:01:44;;;;;;;9.07;8.30;;;;;;;22.66;50.83;101872.84;5051412;28;20472;-45
2022/06/05 11:04:24;;;;;;;9.67;8.93;;;;;;;22.53;52.43;101869.38;5044230;28;20441;-43
2022/06/05 11:06:59;;;;;;;10.50;9.70;;;;;;;22.49;52.54;101878.28;5049671;28;20842;-45
2022/06/05 11:09:42;;;;;;;10.10;9.30;;;;;;;22.31;53.09;101873.09;5051200;28;20454;-48
2022/06/05 11:15:12;;;;;;;9.67;8.90;;;;;;;22.14;54.27;101874.97;5046327;28;20987;-43
2022/06/05 11:17:52;;;;;;;9.20;8.40;;;;;;;22.11;54.13;101865.41;5045996;28;20557;-45
2022/06/05 11:20:23;;;;;;;11.53;10.63;;;;;;;22.07;53.87;101871.59;5051326;28;20792;-43
2022/06/05 11:22:56;;;;;;;9.73;8.87;;;;;;;22.08;54.70;101879.47;5048349;28;20459;-45
2022/06/05 11:25:29;;;;;;;10.20;9.23;;;;;;;22.09;53.79;101873.00;5051381;28;20427;-46
2022/06/05 11:28:12;;;;;;;10.07;9.07;;;;;;;22.10;54.89;101887.41;5044851;28;20465;-43
2022/06/05 11:30:44;;;;;;;9.30;8.60;;;;;;;21.86;55.29;101884.75;5048346;28;20435;-44
2022/06/05 11:33:20;;;;;;;9.13;8.43;;;;;;;21.77;54.84;101879.97;5049574;28;20435;-46
2022/06/05 11:36:03;;;;;;;9.50;8.70;;;;;;;22.00;55.30;101871.75;5050889;28;20775;-43
2022/06/05 11:38:40;;;;;;;9.83;9.03;;;;;;;22.09;53.07;101864.00;5045097;28;20467;-45
2022/06/05 11:41:23;;;;;;;9.30;8.50;;;;;;;22.23;54.00;101866.16;5050155;28;20439;-43
2022/06/05 11:44:05;;;;;;;8.50;7.90;;;;;;;22.19;53.86;101866.91;5051249;28;20433;-43
2022/06/05 11:46:39;;;;;;;8.57;7.97;;;;;;;22.36;53.67;101857.69;5046143;28;20906;-45
2022/06/05 11:49:16;;;;;;;8.17;7.67;;;;;;;22.29;53.19;101862.47;5050555;28;20881;-45
2022/06/05 11:52:01;;;;;;;9.53;8.83;;;;;;;22.41;53.07;101860.47;5050711;28;20456;-44
2022/06/05 11:54:40;;;;;;;8.47;7.77;;;;;;;22.57;52.89;101856.94;5050745;28;20513;-44
2022/06/05 11:57:15;;;;;;;7.90;7.30;;;;;;;22.61;52.25;101846.34;5054138;28;20429;-43
2022/06/05 11:59:49;;;;;;;8.10;7.60;;;;;;;22.67;52.06;101844.59;5047905;28;20808;-43